Time;durP1;ratioP1;P1;durP2;ratioP2;P2;SDS_P1;SDS_P2;PMS_P1;PMS_P2;Temp;Humidity;BMP_temperature;BMP_pressure;BME280_temperature;BME280_humidity;BME280_pressure;Samples;Min_cycle;Max_cycle;Signal;HPM_P1;HPM_P2
2021/01/22 00:00:59;;;;;;;1.5;1.4;;;;;;;7.36;77.52051;93396.06;;;;
2021/01/22 00:02:00;;;;;;;1.75;1.35;;;;;;;7.37;77.25488;93411.63;;;;
2021/01/22 00:03:00;;;;;;;1.75;1.35;;;;;;;7.37;77.25488;93411.63;;;;
2021/01/22 00:04:01;;;;;;;1.75;1.35;;;;;;;7.37;77.25488;93411.63;;;;
2021/01/22 00:05:01;;;;;;;1.75;1.35;;;;;;;7.37;77.25488;93411.63;;;;
2021/01/22 00:06:03;;;;;;;1.75;1.35;;;;;;;7.37;77.25488;93411.63;;;;
2021/01/22 00:07:04;;;;;;;1.75;1.35;;;;;;;7.37;77.25488;93411.63;;;;
2021/01/22 00:08:05;;;;;;;1.75;1.35;;;;;;;7.37;77.25488;93411.63;;;;
2021/01/22 00:09:05;;;;;;;1.75;1.35;;;;;;;7.37;77.25488;93411.63;;;;
2021/01/22 00:10:05;;;;;;;1.75;1.35;;;;;;;7.37;77.25488;93411.63;;;;
2021/01/22 00:11:07;;;;;;;1.75;1.35;;;;;;;7.37;77.25488;93411.63;;;;
2021/01/22 00:12:09;;;;;;;1.75;1.35;;;;;;;7.37;77.25488;93411.63;;;;
2021/01/22 00:13:10;;;;;;;1.45;1.35;;;;;;;7.58;76.72949;93509.59;;;;
2021/01/22 00:14:10;;;;;;;1.45;1.35;;;;;;;7.58;76.72949;93509.59;;;;
2021/01/22 00:15:11;;;;;;;1.45;1.35;;;;;;;7.58;76.72949;93509.59;;;;
2021/01/22 00:16:12;;;;;;;1.45;1.35;;;;;;;7.58;76.72949;93509.59;;;;
2021/01/22 00:17:12;;;;;;;1.45;1.35;;;;;;;7.58;76.72949;93509.59;;;;
2021/01/22 00:18:13;;;;;;;1.45;1.35;;;;;;;7.58;76.72949;93509.59;;;;
2021/01/22 00:19:13;;;;;;;1.45;1.35;;;;;;;7.58;76.72949;93509.59;;;;
2021/01/22 00:20:14;;;;;;;1.45;1.35;;;;;;;7.58;76.72949;93509.59;;;;
2021/01/22 00:21:15;;;;;;;1.45;1.35;;;;;;;7.58;76.72949;93509.59;;;;
2021/01/22 00:22:15;;;;;;;1.45;1.35;;;;;;;7.58;76.72949;93509.59;;;;
2021/01/22 00:23:16;;;;;;;1.7;1.6;;;;;;;7.66;75.9707;93505.49;;;;
2021/01/22 00:24:16;;;;;;;1.7;1.6;;;;;;;7.66;75.9707;93505.49;;;;
2021/01/22 00:25:17;;;;;;;1.7;1.6;;;;;;;7.66;75.9707;93505.49;;;;
2021/01/22 00:26:17;;;;;;;1.7;1.6;;;;;;;7.66;75.9707;93505.49;;;;
2021/01/22 00:27:17;;;;;;;1.7;1.6;;;;;;;7.66;75.9707;93505.49;;;;
2021/01/22 00:28:18;;;;;;;1.7;1.6;;;;;;;7.66;75.9707;93505.49;;;;
2021/01/22 00:29:18;;;;;;;1.7;1.6;;;;;;;7.66;75.9707;93505.49;;;;
2021/01/22 00:30:19;;;;;;;1.7;1.6;;;;;;;7.66;75.9707;93505.49;;;;
2021/01/22 00:31:20;;;;;;;1.7;1.6;;;;;;;7.66;75.9707;93505.49;;;;
2021/01/22 00:32:20;;;;;;;1.7;1.6;;;;;;;7.66;75.9707;93505.49;;;;
2021/01/22 00:33:21;;;;;;;1.7;1.6;;;;;;;7.66;75.9707;93505.49;;;;
2021/01/22 00:34:21;;;;;;;1.95;1.45;;;;;;;7.53;76.22168;93487.16;;;;
2021/01/22 00:35:22;;;;;;;1.95;1.45;;;;;;;7.53;76.22168;93487.16;;;;
2021/01/22 00:36:22;;;;;;;1.95;1.45;;;;;;;7.53;76.22168;93487.16;;;;
2021/01/22 00:37:23;;;;;;;1.95;1.45;;;;;;;7.53;76.22168;93487.16;;;;
2021/01/22 00:38:23;;;;;;;1.95;1.45;;;;;;;7.53;76.22168;93487.16;;;;
2021/01/22 00:39:24;;;;;;;1.95;1.45;;;;;;;7.53;76.22168;93487.16;;;;
2021/01/22 00:40:24;;;;;;;1.95;1.45;;;;;;;7.53;76.22168;93487.16;;;;
2021/01/22 00:41:25;;;;;;;1.95;1.45;;;;;;;7.53;76.22168;93487.16;;;;
2021/01/22 00:42:25;;;;;;;1.95;1.45;;;;;;;7.53;76.22168;93487.16;;;;
2021/01/22 00:43:26;;;;;;;1.95;1.45;;;;;;;7.53;76.22168;93487.16;;;;
2021/01/22 00:44:26;;;;;;;2.1;1.5;;;;;;;7.35;76.39258;93479.54;;;;
2021/01/22 00:45:26;;;;;;;2.1;1.5;;;;;;;7.35;76.39258;93479.54;;;;
2021/01/22 00:46:27;;;;;;;2.1;1.5;;;;;;;7.35;76.39258;93479.54;;;;
2021/01/22 00:47:28;;;;;;;2.1;1.5;;;;;;;7.35;76.39258;93479.54;;;;
2021/01/22 00:48:28;;;;;;;2.1;1.5;;;;;;;7.35;76.39258;93479.54;;;;
2021/01/22 00:49:29;;;;;;;2.1;1.5;;;;;;;7.35;76.39258;93479.54;;;;
2021/01/22 00:50:29;;;;;;;2.1;1.5;;;;;;;7.35;76.39258;93479.54;;;;
2021/01/22 00:51:29;;;;;;;2.1;1.5;;;;;;;7.35;76.39258;93479.54;;;;
2021/01/22 00:52:30;;;;;;;2.1;1.5;;;;;;;7.35;76.39258;93479.54;;;;
2021/01/22 00:53:30;;;;;;;2.1;1.5;;;;;;;7.35;76.39258;93479.54;;;;
2021/01/22 00:54:31;;;;;;;2.1;1.5;;;;;;;7.35;76.39258;93479.54;;;;
2021/01/22 00:55:31;;;;;;;2.05;1.85;;;;;;;7.22;76.41309;93479.47;;;;
2021/01/22 00:56:32;;;;;;;2.05;1.85;;;;;;;7.22;76.41309;93479.47;;;;
2021/01/22 00:57:32;;;;;;;2.05;1.85;;;;;;;7.22;76.41309;93479.47;;;;
2021/01/22 00:58:33;;;;;;;2.05;1.85;;;;;;;7.22;76.41309;93479.47;;;;
2021/01/22 00:59:33;;;;;;;2.05;1.85;;;;;;;7.22;76.41309;93479.47;;;;
2021/01/22 01:00:34;;;;;;;2.05;1.85;;;;;;;7.22;76.41309;93479.47;;;;
2021/01/22 01:01:34;;;;;;;2.05;1.85;;;;;;;7.22;76.41309;93479.47;;;;
2021/01/22 01:02:35;;;;;;;2.05;1.85;;;;;;;7.22;76.41309;93479.47;;;;
2021/01/22 01:03:35;;;;;;;2.05;1.85;;;;;;;7.22;76.41309;93479.47;;;;
2021/01/22 01:04:36;;;;;;;2.05;1.85;;;;;;;7.22;76.41309;93479.47;;;;
2021/01/22 01:05:36;;;;;;;2.5;2.2;;;;;;;6.99;76.69922;93449.13;;;;
2021/01/22 01:06:37;;;;;;;2.5;2.2;;;;;;;6.99;76.69922;93449.13;;;;
2021/01/22 01:07:37;;;;;;;2.5;2.2;;;;;;;6.99;76.69922;93449.13;;;;
2021/01/22 01:08:38;;;;;;;2.5;2.2;;;;;;;6.99;76.69922;93449.13;;;;
2021/01/22 01:09:38;;;;;;;2.5;2.2;;;;;;;6.99;76.69922;93449.13;;;;
2021/01/22 01:10:39;;;;;;;2.5;2.2;;;;;;;6.99;76.69922;93449.13;;;;
2021/01/22 01:11:39;;;;;;;2.5;2.2;;;;;;;6.99;76.69922;93449.13;;;;
2021/01/22 01:12:41;;;;;;;2.5;2.2;;;;;;;6.99;76.69922;93449.13;;;;
2021/01/22 01:13:42;;;;;;;2.5;2.2;;;;;;;6.99;76.69922;93449.13;;;;
2021/01/22 01:14:43;;;;;;;2.5;2.2;;;;;;;6.99;76.69922;93449.13;;;;
2021/01/22 01:15:43;;;;;;;2.5;2.2;;;;;;;6.99;76.69922;93449.13;;;;
2021/01/22 01:16:44;;;;;;;2.950001;2.35;;;;;;;6.7;77.3584;93460.31;;;;
2021/01/22 01:17:44;;;;;;;2.950001;2.35;;;;;;;6.7;77.3584;93460.31;;;;
2021/01/22 01:18:45;;;;;;;2.950001;2.35;;;;;;;6.7;77.3584;93460.31;;;;
2021/01/22 01:19:45;;;;;;;2.950001;2.35;;;;;;;6.7;77.3584;93460.31;;;;
2021/01/22 01:20:46;;;;;;;2.950001;2.35;;;;;;;6.7;77.3584;93460.31;;;;
2021/01/22 01:21:46;;;;;;;2.950001;2.35;;;;;;;6.7;77.3584;93460.31;;;;
2021/01/22 01:22:46;;;;;;;2.950001;2.35;;;;;;;6.7;77.3584;93460.31;;;;
2021/01/22 01:23:47;;;;;;;2.950001;2.35;;;;;;;6.7;77.3584;93460.31;;;;
2021/01/22 01:24:47;;;;;;;2.950001;2.35;;;;;;;6.7;77.3584;93460.31;;;;
2021/01/22 01:25:48;;;;;;;2.950001;2.35;;;;;;;6.7;77.3584;93460.31;;;;
2021/01/22 01:26:48;;;;;;;2.950001;2.35;;;;;;;6.7;77.3584;93460.31;;;;
2021/01/22 01:27:49;;;;;;;4;2.5;;;;;;;6.43;77.63965;93446.96;;;;
2021/01/22 01:28:49;;;;;;;4;2.5;;;;;;;6.43;77.63965;93446.96;;;;
2021/01/22 01:29:50;;;;;;;4;2.5;;;;;;;6.43;77.63965;93446.96;;;;
2021/01/22 01:30:52;;;;;;;4;2.5;;;;;;;6.43;77.63965;93446.96;;;;
2021/01/22 01:31:53;;;;;;;4;2.5;;;;;;;6.43;77.63965;93446.96;;;;
2021/01/22 01:32:53;;;;;;;4;2.5;;;;;;;6.43;77.63965;93446.96;;;;
2021/01/22 01:33:54;;;;;;;4;2.5;;;;;;;6.43;77.63965;93446.96;;;;
2021/01/22 01:34:54;;;;;;;4;2.5;;;;;;;6.43;77.63965;93446.96;;;;
2021/01/22 01:35:55;;;;;;;4;2.5;;;;;;;6.43;77.63965;93446.96;;;;
2021/01/22 01:36:55;;;;;;;4;2.5;;;;;;;6.43;77.63965;93446.96;;;;
2021/01/22 01:37:55;;;;;;;3.3;2.4;;;;;;;6.21;78.05371;93438.59;;;;
2021/01/22 01:38:56;;;;;;;3.3;2.4;;;;;;;6.21;78.05371;93438.59;;;;
2021/01/22 01:39:56;;;;;;;3.3;2.4;;;;;;;6.21;78.05371;93438.59;;;;
2021/01/22 01:40:57;;;;;;;3.3;2.4;;;;;;;6.21;78.05371;93438.59;;;;
2021/01/22 01:41:57;;;;;;;3.3;2.4;;;;;;;6.21;78.05371;93438.59;;;;
2021/01/22 01:42:58;;;;;;;3.3;2.4;;;;;;;6.21;78.05371;93438.59;;;;
2021/01/22 01:43:58;;;;;;;3.3;2.4;;;;;;;6.21;78.05371;93438.59;;;;
2021/01/22 01:44:59;;;;;;;3.3;2.4;;;;;;;6.21;78.05371;93438.59;;;;
2021/01/22 01:45:59;;;;;;;3.3;2.4;;;;;;;6.21;78.05371;93438.59;;;;
2021/01/22 01:47:00;;;;;;;3.3;2.4;;;;;;;6.21;78.05371;93438.59;;;;
2021/01/22 01:48:00;;;;;;;3.3;2.4;;;;;;;6.21;78.05371;93438.59;;;;
2021/01/22 01:49:01;;;;;;;3.3;2.299999;;;;;;;6.01;78.53613;93431.7;;;;
2021/01/22 01:50:02;;;;;;;3.3;2.299999;;;;;;;6.01;78.53613;93431.7;;;;
2021/01/22 01:51:03;;;;;;;3.3;2.299999;;;;;;;6.01;78.53613;93431.7;;;;
2021/01/22 01:52:04;;;;;;;3.3;2.299999;;;;;;;6.01;78.53613;93431.7;;;;
2021/01/22 01:53:05;;;;;;;3.3;2.299999;;;;;;;6.01;78.53613;93431.7;;;;
2021/01/22 01:54:07;;;;;;;3.3;2.299999;;;;;;;6.01;78.53613;93431.7;;;;
2021/01/22 01:55:08;;;;;;;3.3;2.299999;;;;;;;6.01;78.53613;93431.7;;;;
2021/01/22 01:56:09;;;;;;;3.3;2.299999;;;;;;;6.01;78.53613;93431.7;;;;
2021/01/22 01:57:10;;;;;;;3.3;2.299999;;;;;;;6.01;78.53613;93431.7;;;;
2021/01/22 01:58:12;;;;;;;3.3;2.299999;;;;;;;6.01;78.53613;93431.7;;;;
2021/01/22 01:59:13;;;;;;;4.6;2.4;;;;;;;5.74;78.96387;93411.58;;;;
2021/01/22 02:00:14;;;;;;;4.6;2.4;;;;;;;5.74;78.96387;93411.58;;;;
2021/01/22 02:01:16;;;;;;;4.6;2.4;;;;;;;5.74;78.96387;93411.58;;;;
2021/01/22 02:02:18;;;;;;;4.6;2.4;;;;;;;5.74;78.96387;93411.58;;;;
2021/01/22 02:03:19;;;;;;;4.6;2.4;;;;;;;5.74;78.96387;93411.58;;;;
2021/01/22 02:04:20;;;;;;;4.6;2.4;;;;;;;5.74;78.96387;93411.58;;;;
2021/01/22 02:05:20;;;;;;;4.6;2.4;;;;;;;5.74;78.96387;93411.58;;;;
2021/01/22 02:06:21;;;;;;;4.6;2.4;;;;;;;5.74;78.96387;93411.58;;;;
2021/01/22 02:07:22;;;;;;;4.6;2.4;;;;;;;5.74;78.96387;93411.58;;;;
2021/01/22 02:08:22;;;;;;;4.6;2.4;;;;;;;5.74;78.96387;93411.58;;;;
2021/01/22 02:09:24;;;;;;;4.6;2.4;;;;;;;5.74;78.96387;93411.58;;;;
2021/01/22 02:10:25;;;;;;;2.95;2.15;;;;;;;5.54;79.35938;93405.22;;;;
2021/01/22 02:11:26;;;;;;;2.95;2.15;;;;;;;5.54;79.35938;93405.22;;;;
2021/01/22 02:12:27;;;;;;;2.95;2.15;;;;;;;5.54;79.35938;93405.22;;;;
2021/01/22 02:13:28;;;;;;;2.95;2.15;;;;;;;5.54;79.35938;93405.22;;;;
2021/01/22 02:14:30;;;;;;;2.95;2.15;;;;;;;5.54;79.35938;93405.22;;;;
2021/01/22 02:15:31;;;;;;;2.95;2.15;;;;;;;5.54;79.35938;93405.22;;;;
2021/01/22 02:16:33;;;;;;;2.95;2.15;;;;;;;5.54;79.35938;93405.22;;;;
2021/01/22 02:17:34;;;;;;;2.95;2.15;;;;;;;5.54;79.35938;93405.22;;;;
2021/01/22 02:18:35;;;;;;;2.95;2.15;;;;;;;5.54;79.35938;93405.22;;;;
2021/01/22 02:19:36;;;;;;;2.95;2.15;;;;;;;5.54;79.35938;93405.22;;;;
2021/01/22 02:20:50;;;;;;;2.1;1.8;;;;;;;5.47;80.0332;93414.76;;;;
2021/01/22 02:22:02;;;;;;;2.1;1.8;;;;;;;5.47;80.0332;93414.76;;;;
2021/01/22 02:23:02;;;;;;;2.1;1.8;;;;;;;5.47;80.0332;93414.76;;;;
2021/01/22 02:24:03;;;;;;;2.1;1.8;;;;;;;5.47;80.0332;93414.76;;;;
2021/01/22 02:25:08;;;;;;;2.1;1.8;;;;;;;5.47;80.0332;93414.76;;;;
2021/01/22 02:26:11;;;;;;;2.1;1.8;;;;;;;5.47;80.0332;93414.76;;;;
2021/01/22 02:27:34;;;;;;;2.1;1.8;;;;;;;5.47;80.0332;93414.76;;;;
2021/01/22 02:28:36;;;;;;;2.1;1.8;;;;;;;5.47;80.0332;93414.76;;;;
2021/01/22 02:29:38;;;;;;;2.1;1.8;;;;;;;5.47;80.0332;93414.76;;;;
2021/01/22 02:30:39;;;;;;;2.1;1.8;;;;;;;5.47;80.0332;93414.76;;;;
2021/01/22 02:31:42;;;;;;;2.3;1.8;;;;;;;5.46;80.2959;93407.39;;;;
2021/01/22 02:32:43;;;;;;;2.3;1.8;;;;;;;5.46;80.2959;93407.39;;;;
2021/01/22 02:33:45;;;;;;;2.3;1.8;;;;;;;5.46;80.2959;93407.39;;;;
2021/01/22 02:34:48;;;;;;;2.3;1.8;;;;;;;5.46;80.2959;93407.39;;;;
2021/01/22 02:35:52;;;;;;;2.3;1.8;;;;;;;5.46;80.2959;93407.39;;;;
2021/01/22 02:36:55;;;;;;;2.3;1.8;;;;;;;5.46;80.2959;93407.39;;;;
2021/01/22 02:37:57;;;;;;;2.3;1.8;;;;;;;5.46;80.2959;93407.39;;;;
2021/01/22 02:38:59;;;;;;;2.3;1.8;;;;;;;5.46;80.2959;93407.39;;;;
2021/01/22 02:40:01;;;;;;;2.3;1.8;;;;;;;5.46;80.2959;93407.39;;;;
2021/01/22 02:41:07;;;;;;;2.3;1.8;;;;;;;5.46;80.2959;93407.39;;;;
2021/01/22 02:42:10;;;;;;;2.8;1.8;;;;;;;5.47;80.3291;93424.13;;;;
2021/01/22 02:43:13;;;;;;;2.8;1.8;;;;;;;5.47;80.3291;93424.13;;;;
2021/01/22 02:44:15;;;;;;;2.8;1.8;;;;;;;5.47;80.3291;93424.13;;;;
2021/01/22 02:45:16;;;;;;;2.8;1.8;;;;;;;5.47;80.3291;93424.13;;;;
2021/01/22 02:46:18;;;;;;;2.8;1.8;;;;;;;5.47;80.3291;93424.13;;;;
2021/01/22 02:47:18;;;;;;;2.8;1.8;;;;;;;5.47;80.3291;93424.13;;;;
2021/01/22 02:48:19;;;;;;;2.8;1.8;;;;;;;5.47;80.3291;93424.13;;;;
2021/01/22 02:49:20;;;;;;;2.8;1.8;;;;;;;5.47;80.3291;93424.13;;;;
2021/01/22 02:50:21;;;;;;;2.8;1.8;;;;;;;5.47;80.3291;93424.13;;;;
2021/01/22 02:51:30;;;;;;;2.8;1.8;;;;;;;5.47;80.3291;93424.13;;;;
2021/01/22 02:52:30;;;;;;;1.9;1.65;;;;;;;5.38;80.31348;93445.28;;;;
2021/01/22 02:53:31;;;;;;;1.9;1.65;;;;;;;5.38;80.31348;93445.28;;;;
2021/01/22 02:54:31;;;;;;;1.9;1.65;;;;;;;5.38;80.31348;93445.28;;;;
2021/01/22 02:55:32;;;;;;;1.9;1.65;;;;;;;5.38;80.31348;93445.28;;;;
2021/01/22 02:56:35;;;;;;;1.9;1.65;;;;;;;5.38;80.31348;93445.28;;;;
2021/01/22 02:57:46;;;;;;;1.9;1.65;;;;;;;5.38;80.31348;93445.28;;;;
2021/01/22 02:58:52;;;;;;;1.9;1.65;;;;;;;5.38;80.31348;93445.28;;;;
2021/01/22 03:00:02;;;;;;;1.9;1.65;;;;;;;5.38;80.31348;93445.28;;;;
2021/01/22 03:01:08;;;;;;;1.9;1.65;;;;;;;5.38;80.31348;93445.28;;;;
2021/01/22 03:02:15;;;;;;;1.9;1.65;;;;;;;5.38;80.31348;93445.28;;;;
2021/01/22 03:03:23;;;;;;;2.15;1.6;;;;;;;5.23;80.59961;93450.87;;;;
2021/01/22 03:04:32;;;;;;;2.15;1.6;;;;;;;5.23;80.59961;93450.87;;;;
2021/01/22 03:05:33;;;;;;;2.15;1.6;;;;;;;5.23;80.59961;93450.87;;;;
2021/01/22 03:06:36;;;;;;;2.15;1.6;;;;;;;5.23;80.59961;93450.87;;;;
2021/01/22 03:07:41;;;;;;;2.15;1.6;;;;;;;5.23;80.59961;93450.87;;;;
2021/01/22 03:08:46;;;;;;;2.15;1.6;;;;;;;5.23;80.59961;93450.87;;;;
2021/01/22 03:09:52;;;;;;;2.15;1.6;;;;;;;5.23;80.59961;93450.87;;;;
2021/01/22 03:10:58;;;;;;;2.15;1.6;;;;;;;5.23;80.59961;93450.87;;;;
2021/01/22 03:11:59;;;;;;;2.15;1.6;;;;;;;5.23;80.59961;93450.87;;;;
2021/01/22 03:13:00;;;;;;;2.15;1.6;;;;;;;5.23;80.59961;93450.87;;;;
2021/01/22 03:14:01;;;;;;;2.2;1.8;;;;;;;5.14;81.12207;93508.12;;;;
2021/01/22 03:15:03;;;;;;;2.2;1.8;;;;;;;5.14;81.12207;93508.12;;;;
2021/01/22 03:16:05;;;;;;;2.2;1.8;;;;;;;5.14;81.12207;93508.12;;;;
2021/01/22 03:17:05;;;;;;;2.2;1.8;;;;;;;5.14;81.12207;93508.12;;;;
2021/01/22 03:18:08;;;;;;;2.2;1.8;;;;;;;5.14;81.12207;93508.12;;;;
2021/01/22 03:19:10;;;;;;;2.2;1.8;;;;;;;5.14;81.12207;93508.12;;;;
2021/01/22 03:20:11;;;;;;;2.2;1.8;;;;;;;5.14;81.12207;93508.12;;;;
2021/01/22 03:21:14;;;;;;;2.2;1.8;;;;;;;5.14;81.12207;93508.12;;;;
2021/01/22 03:22:14;;;;;;;2.2;1.8;;;;;;;5.14;81.12207;93508.12;;;;
2021/01/22 03:23:16;;;;;;;2.2;1.8;;;;;;;5.14;81.12207;93508.12;;;;
2021/01/22 03:24:18;;;;;;;1.9;1.7;;;;;;;5.19;81.35254;93482.78;;;;
2021/01/22 03:25:18;;;;;;;1.9;1.7;;;;;;;5.19;81.35254;93482.78;;;;
2021/01/22 03:26:19;;;;;;;1.9;1.7;;;;;;;5.19;81.35254;93482.78;;;;
2021/01/22 03:27:19;;;;;;;1.9;1.7;;;;;;;5.19;81.35254;93482.78;;;;
2021/01/22 03:28:20;;;;;;;1.9;1.7;;;;;;;5.19;81.35254;93482.78;;;;
2021/01/22 03:29:20;;;;;;;1.9;1.7;;;;;;;5.19;81.35254;93482.78;;;;
2021/01/22 03:30:21;;;;;;;1.9;1.7;;;;;;;5.19;81.35254;93482.78;;;;
2021/01/22 03:31:22;;;;;;;1.9;1.7;;;;;;;5.19;81.35254;93482.78;;;;
2021/01/22 03:32:23;;;;;;;1.9;1.7;;;;;;;5.19;81.35254;93482.78;;;;
2021/01/22 03:33:24;;;;;;;1.9;1.7;;;;;;;5.19;81.35254;93482.78;;;;
2021/01/22 03:34:26;;;;;;;1.9;1.7;;;;;;;5.19;81.35254;93482.78;;;;
2021/01/22 03:35:27;;;;;;;2.75;1.7;;;;;;;5.18;81.4873;93514.2;;;;
2021/01/22 03:36:28;;;;;;;2.75;1.7;;;;;;;5.18;81.4873;93514.2;;;;
2021/01/22 03:37:29;;;;;;;2.75;1.7;;;;;;;5.18;81.4873;93514.2;;;;
2021/01/22 03:38:30;;;;;;;2.75;1.7;;;;;;;5.18;81.4873;93514.2;;;;
2021/01/22 03:39:34;;;;;;;2.75;1.7;;;;;;;5.18;81.4873;93514.2;;;;
2021/01/22 03:40:34;;;;;;;2.75;1.7;;;;;;;5.18;81.4873;93514.2;;;;
2021/01/22 03:41:36;;;;;;;2.75;1.7;;;;;;;5.18;81.4873;93514.2;;;;
2021/01/22 03:42:36;;;;;;;2.75;1.7;;;;;;;5.18;81.4873;93514.2;;;;
2021/01/22 03:43:37;;;;;;;2.75;1.7;;;;;;;5.18;81.4873;93514.2;;;;
2021/01/22 03:44:37;;;;;;;2.75;1.7;;;;;;;5.18;81.4873;93514.2;;;;
2021/01/22 03:45:38;;;;;;;2.95;1.5;;;;;;;5.19;81.79688;93504.99;;;;
2021/01/22 03:46:38;;;;;;;2.95;1.5;;;;;;;5.19;81.79688;93504.99;;;;
2021/01/22 03:47:39;;;;;;;2.95;1.5;;;;;;;5.19;81.79688;93504.99;;;;
2021/01/22 03:48:39;;;;;;;2.95;1.5;;;;;;;5.19;81.79688;93504.99;;;;
2021/01/22 03:49:40;;;;;;;2.95;1.5;;;;;;;5.19;81.79688;93504.99;;;;
2021/01/22 03:50:40;;;;;;;2.95;1.5;;;;;;;5.19;81.79688;93504.99;;;;
2021/01/22 03:51:41;;;;;;;2.95;1.5;;;;;;;5.19;81.79688;93504.99;;;;
2021/01/22 03:52:41;;;;;;;2.95;1.5;;;;;;;5.19;81.79688;93504.99;;;;
2021/01/22 03:53:42;;;;;;;2.95;1.5;;;;;;;5.19;81.79688;93504.99;;;;
2021/01/22 03:54:42;;;;;;;2.95;1.5;;;;;;;5.19;81.79688;93504.99;;;;
2021/01/22 03:55:43;;;;;;;2.95;1.5;;;;;;;5.19;81.79688;93504.99;;;;
2021/01/22 03:56:43;;;;;;;1.9;1.6;;;;;;;5.24;82.1748;93499.7;;;;
2021/01/22 03:57:44;;;;;;;1.9;1.6;;;;;;;5.24;82.1748;93499.7;;;;
2021/01/22 03:58:44;;;;;;;1.9;1.6;;;;;;;5.24;82.1748;93499.7;;;;
2021/01/22 03:59:45;;;;;;;1.9;1.6;;;;;;;5.24;82.1748;93499.7;;;;
2021/01/22 04:00:45;;;;;;;1.9;1.6;;;;;;;5.24;82.1748;93499.7;;;;
2021/01/22 04:01:46;;;;;;;1.9;1.6;;;;;;;5.24;82.1748;93499.7;;;;
2021/01/22 04:02:46;;;;;;;1.9;1.6;;;;;;;5.24;82.1748;93499.7;;;;
2021/01/22 04:03:47;;;;;;;1.9;1.6;;;;;;;5.24;82.1748;93499.7;;;;
2021/01/22 04:04:47;;;;;;;1.9;1.6;;;;;;;5.24;82.1748;93499.7;;;;
2021/01/22 04:05:48;;;;;;;1.9;1.6;;;;;;;5.24;82.1748;93499.7;;;;
2021/01/22 04:06:48;;;;;;;1.9;1.6;;;;;;;5.24;82.1748;93499.7;;;;
2021/01/22 04:07:49;;;;;;;1.6;1.5;;;;;;;5.42;82.58887;93503.02;;;;
2021/01/22 04:08:49;;;;;;;1.6;1.5;;;;;;;5.42;82.58887;93503.02;;;;
2021/01/22 04:09:50;;;;;;;1.6;1.5;;;;;;;5.42;82.58887;93503.02;;;;
2021/01/22 04:10:50;;;;;;;1.6;1.5;;;;;;;5.42;82.58887;93503.02;;;;
2021/01/22 04:11:51;;;;;;;1.6;1.5;;;;;;;5.42;82.58887;93503.02;;;;
2021/01/22 04:12:51;;;;;;;1.6;1.5;;;;;;;5.42;82.58887;93503.02;;;;
2021/01/22 04:13:52;;;;;;;1.6;1.5;;;;;;;5.42;82.58887;93503.02;;;;
2021/01/22 04:14:52;;;;;;;1.6;1.5;;;;;;;5.42;82.58887;93503.02;;;;
2021/01/22 04:15:53;;;;;;;1.6;1.5;;;;;;;5.42;82.58887;93503.02;;;;
2021/01/22 04:16:53;;;;;;;1.6;1.5;;;;;;;5.42;82.58887;93503.02;;;;
2021/01/22 04:17:55;;;;;;;1.7;1.5;;;;;;;5.73;82.67969;93475.69;;;;
2021/01/22 04:18:55;;;;;;;1.7;1.5;;;;;;;5.73;82.67969;93475.69;;;;
2021/01/22 04:19:56;;;;;;;1.7;1.5;;;;;;;5.73;82.67969;93475.69;;;;
2021/01/22 04:20:57;;;;;;;1.7;1.5;;;;;;;5.73;82.67969;93475.69;;;;
2021/01/22 04:21:57;;;;;;;1.7;1.5;;;;;;;5.73;82.67969;93475.69;;;;
2021/01/22 04:22:57;;;;;;;1.7;1.5;;;;;;;5.73;82.67969;93475.69;;;;
2021/01/22 04:23:58;;;;;;;1.7;1.5;;;;;;;5.73;82.67969;93475.69;;;;
2021/01/22 04:24:58;;;;;;;1.7;1.5;;;;;;;5.73;82.67969;93475.69;;;;
2021/01/22 04:25:59;;;;;;;1.7;1.5;;;;;;;5.73;82.67969;93475.69;;;;
2021/01/22 04:26:59;;;;;;;1.7;1.5;;;;;;;5.73;82.67969;93475.69;;;;
2021/01/22 04:28:00;;;;;;;1.7;1.5;;;;;;;5.73;82.67969;93475.69;;;;
2021/01/22 04:29:00;;;;;;;1.5;1.4;;;;;;;6.03;82.74609;93472.44;;;;
2021/01/22 04:30:01;;;;;;;1.5;1.4;;;;;;;6.03;82.74609;93472.44;;;;
2021/01/22 04:31:02;;;;;;;1.5;1.4;;;;;;;6.03;82.74609;93472.44;;;;
2021/01/22 04:32:03;;;;;;;1.5;1.4;;;;;;;6.03;82.74609;93472.44;;;;
2021/01/22 04:33:04;;;;;;;1.5;1.4;;;;;;;6.03;82.74609;93472.44;;;;
2021/01/22 04:34:05;;;;;;;1.5;1.4;;;;;;;6.03;82.74609;93472.44;;;;
2021/01/22 04:35:05;;;;;;;1.5;1.4;;;;;;;6.03;82.74609;93472.44;;;;
2021/01/22 04:36:11;;;;;;;1.5;1.4;;;;;;;6.03;82.74609;93472.44;;;;
2021/01/22 04:37:11;;;;;;;1.5;1.4;;;;;;;6.03;82.74609;93472.44;;;;
2021/01/22 04:38:12;;;;;;;1.5;1.4;;;;;;;6.03;82.74609;93472.44;;;;
2021/01/22 04:39:12;;;;;;;1.8;1.5;;;;;;;6.25;82.7998;93470.93;;;;
2021/01/22 04:40:13;;;;;;;1.8;1.5;;;;;;;6.25;82.7998;93470.93;;;;
2021/01/22 04:41:15;;;;;;;1.8;1.5;;;;;;;6.25;82.7998;93470.93;;;;
2021/01/22 04:42:16;;;;;;;1.8;1.5;;;;;;;6.25;82.7998;93470.93;;;;
2021/01/22 04:43:17;;;;;;;1.8;1.5;;;;;;;6.25;82.7998;93470.93;;;;
2021/01/22 04:44:17;;;;;;;1.8;1.5;;;;;;;6.25;82.7998;93470.93;;;;
2021/01/22 04:45:18;;;;;;;1.8;1.5;;;;;;;6.25;82.7998;93470.93;;;;
2021/01/22 04:46:19;;;;;;;1.8;1.5;;;;;;;6.25;82.7998;93470.93;;;;
2021/01/22 04:47:20;;;;;;;1.8;1.5;;;;;;;6.25;82.7998;93470.93;;;;
2021/01/22 04:48:21;;;;;;;1.8;1.5;;;;;;;6.25;82.7998;93470.93;;;;
2021/01/22 04:49:22;;;;;;;1.8;1.5;;;;;;;6.25;82.7998;93470.93;;;;
2021/01/22 04:50:23;;;;;;;1.6;1.4;;;;;;;6.41;82.92578;93456.72;;;;
2021/01/22 04:51:25;;;;;;;1.6;1.4;;;;;;;6.41;82.92578;93456.72;;;;
2021/01/22 04:52:26;;;;;;;1.6;1.4;;;;;;;6.41;82.92578;93456.72;;;;
2021/01/22 04:53:28;;;;;;;1.6;1.4;;;;;;;6.41;82.92578;93456.72;;;;
2021/01/22 04:54:32;;;;;;;1.6;1.4;;;;;;;6.41;82.92578;93456.72;;;;
2021/01/22 04:55:35;;;;;;;1.6;1.4;;;;;;;6.41;82.92578;93456.72;;;;
2021/01/22 04:56:39;;;;;;;1.6;1.4;;;;;;;6.41;82.92578;93456.72;;;;
2021/01/22 04:57:44;;;;;;;1.6;1.4;;;;;;;6.41;82.92578;93456.72;;;;
2021/01/22 04:58:46;;;;;;;1.6;1.4;;;;;;;6.41;82.92578;93456.72;;;;
2021/01/22 04:59:51;;;;;;;1.6;1.4;;;;;;;6.41;82.92578;93456.72;;;;
2021/01/22 05:00:52;;;;;;;2.1;1.5;;;;;;;6.53;83.27539;93440.89;;;;
2021/01/22 05:01:53;;;;;;;2.1;1.5;;;;;;;6.53;83.27539;93440.89;;;;
2021/01/22 05:02:55;;;;;;;2.1;1.5;;;;;;;6.53;83.27539;93440.89;;;;
2021/01/22 05:03:55;;;;;;;2.1;1.5;;;;;;;6.53;83.27539;93440.89;;;;
2021/01/22 05:04:57;;;;;;;2.1;1.5;;;;;;;6.53;83.27539;93440.89;;;;
2021/01/22 05:05:59;;;;;;;2.1;1.5;;;;;;;6.53;83.27539;93440.89;;;;
2021/01/22 05:06:59;;;;;;;2.1;1.5;;;;;;;6.53;83.27539;93440.89;;;;
2021/01/22 05:08:00;;;;;;;2.1;1.5;;;;;;;6.53;83.27539;93440.89;;;;
2021/01/22 05:09:01;;;;;;;2.1;1.5;;;;;;;6.53;83.27539;93440.89;;;;
2021/01/22 05:10:02;;;;;;;2.1;1.5;;;;;;;6.53;83.27539;93440.89;;;;
2021/01/22 05:11:04;;;;;;;2.65;1.9;;;;;;;6.53;83.42285;93415.83;;;;
2021/01/22 05:12:04;;;;;;;2.65;1.9;;;;;;;6.53;83.42285;93415.83;;;;
2021/01/22 05:13:07;;;;;;;2.65;1.9;;;;;;;6.53;83.42285;93415.83;;;;
2021/01/22 05:14:08;;;;;;;2.65;1.9;;;;;;;6.53;83.42285;93415.83;;;;
2021/01/22 05:15:09;;;;;;;2.65;1.9;;;;;;;6.53;83.42285;93415.83;;;;
2021/01/22 05:16:23;;;;;;;2.65;1.9;;;;;;;6.53;83.42285;93415.83;;;;
2021/01/22 05:17:24;;;;;;;2.65;1.9;;;;;;;6.53;83.42285;93415.83;;;;
2021/01/22 05:18:24;;;;;;;2.65;1.9;;;;;;;6.53;83.42285;93415.83;;;;
2021/01/22 05:19:30;;;;;;;2.65;1.9;;;;;;;6.53;83.42285;93415.83;;;;
2021/01/22 05:20:31;;;;;;;2.65;1.9;;;;;;;6.53;83.42285;93415.83;;;;
2021/01/22 05:21:34;;;;;;;2.65;1.9;;;;;;;6.53;83.42285;93415.83;;;;
2021/01/22 05:22:39;;;;;;;2.45;1.75;;;;;;;6.49;83.9209;93408.94;;;;
2021/01/22 05:23:39;;;;;;;2.45;1.75;;;;;;;6.49;83.9209;93408.94;;;;
2021/01/22 05:24:41;;;;;;;2.45;1.75;;;;;;;6.49;83.9209;93408.94;;;;
2021/01/22 05:25:42;;;;;;;2.45;1.75;;;;;;;6.49;83.9209;93408.94;;;;
2021/01/22 05:26:58;;;;;;;2.45;1.75;;;;;;;6.49;83.9209;93408.94;;;;
2021/01/22 05:28:00;;;;;;;2.45;1.75;;;;;;;6.49;83.9209;93408.94;;;;
2021/01/22 05:29:00;;;;;;;2.45;1.75;;;;;;;6.49;83.9209;93408.94;;;;
2021/01/22 05:30:14;;;;;;;2.45;1.75;;;;;;;6.49;83.9209;93408.94;;;;
2021/01/22 05:31:16;;;;;;;2.45;1.75;;;;;;;6.49;83.9209;93408.94;;;;
2021/01/22 05:32:19;;;;;;;2.45;1.75;;;;;;;6.49;83.9209;93408.94;;;;
2021/01/22 05:33:25;;;;;;;1.4;1.3;;;;;;;6.45;84.23145;93390.41;;;;
2021/01/22 05:34:26;;;;;;;1.4;1.3;;;;;;;6.45;84.23145;93390.41;;;;
2021/01/22 05:35:43;;;;;;;1.4;1.3;;;;;;;6.45;84.23145;93390.41;;;;
2021/01/22 05:36:44;;;;;;;1.4;1.3;;;;;;;6.45;84.23145;93390.41;;;;
2021/01/22 05:37:47;;;;;;;1.4;1.3;;;;;;;6.45;84.23145;93390.41;;;;
2021/01/22 05:38:50;;;;;;;1.4;1.3;;;;;;;6.45;84.23145;93390.41;;;;
2021/01/22 05:39:51;;;;;;;1.4;1.3;;;;;;;6.45;84.23145;93390.41;;;;
2021/01/22 05:41:09;;;;;;;1.4;1.3;;;;;;;6.45;84.23145;93390.41;;;;
2021/01/22 05:42:10;;;;;;;1.4;1.3;;;;;;;6.45;84.23145;93390.41;;;;
2021/01/22 05:43:11;;;;;;;1.4;1.2;;;;;;;6.51;84.46582;93367.95;;;;
2021/01/22 05:44:11;;;;;;;1.4;1.2;;;;;;;6.51;84.46582;93367.95;;;;
2021/01/22 05:45:19;;;;;;;1.4;1.2;;;;;;;6.51;84.46582;93367.95;;;;
2021/01/22 05:46:37;;;;;;;1.4;1.2;;;;;;;6.51;84.46582;93367.95;;;;
2021/01/22 05:47:38;;;;;;;1.4;1.2;;;;;;;6.51;84.46582;93367.95;;;;
2021/01/22 05:48:39;;;;;;;1.4;1.2;;;;;;;6.51;84.46582;93367.95;;;;
2021/01/22 05:49:40;;;;;;;1.4;1.2;;;;;;;6.51;84.46582;93367.95;;;;
2021/01/22 05:50:57;;;;;;;1.4;1.2;;;;;;;6.51;84.46582;93367.95;;;;
2021/01/22 05:51:59;;;;;;;1.4;1.2;;;;;;;6.51;84.46582;93367.95;;;;
2021/01/22 05:53:00;;;;;;;1.4;1.2;;;;;;;6.51;84.46582;93367.95;;;;
2021/01/22 05:54:11;;;;;;;1.4;1.3;;;;;;;6.52;84.37207;93369.95;;;;
2021/01/22 05:55:32;;;;;;;1.4;1.3;;;;;;;6.52;84.37207;93369.95;;;;
2021/01/22 05:56:33;;;;;;;1.4;1.3;;;;;;;6.52;84.37207;93369.95;;;;
2021/01/22 05:57:34;;;;;;;1.4;1.3;;;;;;;6.52;84.37207;93369.95;;;;
2021/01/22 05:58:38;;;;;;;1.4;1.3;;;;;;;6.52;84.37207;93369.95;;;;
2021/01/22 05:59:40;;;;;;;1.4;1.3;;;;;;;6.52;84.37207;93369.95;;;;
2021/01/22 06:00:40;;;;;;;1.4;1.3;;;;;;;6.52;84.37207;93369.95;;;;
2021/01/22 06:01:41;;;;;;;1.4;1.3;;;;;;;6.52;84.37207;93369.95;;;;
2021/01/22 06:02:41;;;;;;;1.4;1.3;;;;;;;6.52;84.37207;93369.95;;;;
2021/01/22 06:03:42;;;;;;;1.4;1.3;;;;;;;6.52;84.37207;93369.95;;;;